Time;durP1;ratioP1;P1;durP2;ratioP2;P2;SDS_P1;SDS_P2;PMS_P1;PMS_P2;Temp;Humidity;BMP_temperature;BMP_pressure;BME280_temperature;BME280_humidity;BME280_pressure;Samples;Min_cycle;Max_cycle;Signal;HPM_P1;HPM_P2
2022/12/17 13:06:48;;;;;;;47.45;12.63;;;;;;;6.60;44.34;102418.44;4877909;29;20039;-61
2022/12/17 13:09:24;;;;;;;33.88;11.20;;;;;;;6.58;45.61;102413.19;4861970;29;20032;-61
2022/12/17 13:11:58;;;;;;;50.72;15.90;;;;;;;6.62;44.36;102416.56;4877776;29;20059;-61
2022/12/17 13:14:43;;;;;;;35.42;12.75;;;;;;;6.63;44.40;102410.31;4877969;29;20072;-61
2022/12/17 13:17:14;;;;;;;42.33;12.02;;;;;;;6.63;44.66;102407.66;4861698;29;20045;-61
2022/12/17 13:19:42;;;;;;;46.10;13.82;;;;;;;6.63;44.61;102405.00;4877780;29;20041;-61
2022/12/17 13:22:25;;;;;;;45.08;13.20;;;;;;;6.62;44.95;102389.94;4845746;29;20516;-61
2022/12/17 13:24:55;;;;;;;32.85;11.77;;;;;;;6.63;45.34;102397.00;4861527;29;20037;-61
2022/12/17 13:27:32;;;;;;;36.50;12.20;;;;;;;6.65;45.97;102406.66;4861499;29;20044;-61
2022/12/17 13:30:33;;;;;;;42.33;11.02;;;;;;;6.66;45.37;102394.22;4877490;29;20084;-61
2022/12/17 13:36:05;;;;;;;42.50;11.32;;;;;;;6.68;44.84;102405.66;5579776;23;20068;-61
2022/12/17 13:38:48;;;;;;;39.67;13.07;;;;;;;6.68;45.05;102400.34;4897096;29;20455;-61
2022/12/17 13:41:20;;;;;;;;;;;;;;;6.67;44.03;102409.28;4864815;29;20037;-62
2022/12/17 13:43:55;;;;;;;37.63;11.38;;;;;;;6.65;44.12;102408.44;4879907;29;19920;-61
2022/12/17 13:46:26;;;;;;;43.75;11.15;;;;;;;6.64;43.97;102409.41;4880083;29;20556;-61
2022/12/17 13:49:00;;;;;;;36.83;11.85;;;;;;;6.62;45.75;102401.47;4879475;29;20041;-61
2022/12/17 13:51:28;;;;;;;41.47;13.05;;;;;;;6.62;44.57;102397.94;4879784;29;20056;-61
2022/12/17 13:53:59;;;;;;;47.33;13.20;;;;;;;6.63;44.52;102397.88;4880841;29;20839;-60
2022/12/17 13:56:28;;;;;;;40.92;11.80;;;;;;;6.61;45.41;102393.56;4864203;29;20521;-60
2022/12/17 13:58:54;;;;;;;32.45;12.60;;;;;;;6.62;45.77;102396.13;4896113;29;20048;-61
2022/12/17 14:01:20;;;;;;;43.05;13.38;;;;;;;6.68;44.53;102400.34;4879706;29;20505;-61
2022/12/17 14:03:59;;;;;;;42.05;12.52;;;;;;;6.66;44.17;102407.53;4879128;29;20043;-60
2022/12/17 14:06:36;;;;;;;33.45;11.82;;;;;;;6.64;45.40;102402.28;4880567;29;20029;-61
2022/12/17 14:09:02;;;;;;;37.22;11.73;;;;;;;6.64;44.91;102409.41;4881606;29;20059;-61
2022/12/17 14:14:27;;;;;;;35.50;13.00;;;;;;;6.66;45.68;102407.53;4883802;29;20065;-61
2022/12/17 14:16:53;;;;;;;35.67;13.27;;;;;;;6.69;44.77;102407.41;4865643;29;20414;-60
2022/12/17 14:19:19;;;;;;;28.08;11.43;;;;;;;6.69;45.48;102402.06;4881332;29;20116;-61
2022/12/17 14:21:44;;;;;;;43.50;12.35;;;;;;;6.68;44.44;102405.66;4881225;29;20437;-60
2022/12/17 14:24:11;;;;;;;33.80;12.27;;;;;;;6.69;45.06;102413.59;4898425;29;20043;-61
2022/12/17 14:26:47;;;;;;;39.50;11.80;;;;;;;6.73;45.31;102409.84;4881479;29;20044;-61
2022/12/17 14:29:13;;;;;;;30.92;10.85;;;;;;;6.75;44.66;102423.13;4881247;29;20048;-61
2022/12/17 14:31:38;;;;;;;34.78;12.13;;;;;;;6.74;44.22;102416.94;4897924;29;20422;-61
2022/12/17 14:34:09;;;;;;;39.30;12.60;;;;;;;6.75;44.89;102418.66;4865713;29;20032;-61
2022/12/17 14:36:40;;;;;;;44.28;12.00;;;;;;;6.75;45.41;102421.34;4881036;29;20112;-61
2022/12/17 14:39:16;;;;;;;37.33;11.63;;;;;;;6.75;43.89;102415.13;4881527;29;20104;-60
2022/12/17 14:44:27;;;;;;;35.25;11.93;;;;;;;6.73;43.93;102422.28;4870893;29;20044;-61
2022/12/17 14:47:26;;;;;;;33.65;12.07;;;;;;;6.74;45.83;102421.38;4881413;29;20041;-61
2022/12/17 14:49:58;;;;;;;37.95;12.07;;;;;;;6.72;45.36;102421.47;4826154;29;20048;-60
2022/12/17 14:52:26;;;;;;;42.67;12.15;;;;;;;6.73;45.62;102427.63;4880835;29;20051;-61
2022/12/17 14:54:51;;;;;;;39.47;12.10;;;;;;;6.68;44.60;102426.97;4897706;29;20036;-61
2022/12/17 14:57:20;;;;;;;49.90;13.27;;;;;;;6.66;45.10;102423.50;4850788;29;20043;-62
2022/12/17 14:59:46;;;;;;;45.00;14.43;;;;;;;6.63;44.95;102423.63;4866105;29;20455;-61
2022/12/17 15:02:29;;;;;;;48.63;13.73;;;;;;;6.64;44.51;102430.69;4865691;29;20047;-61
2022/12/17 15:04:56;;;;;;;38.10;11.50;;;;;;;6.60;44.96;102421.09;4881404;29;20558;-62
2022/12/17 15:07:24;;;;;;;52.83;16.45;;;;;;;6.58;44.17;102429.16;4865390;29;20033;-62
2022/12/17 15:09:51;;;;;;;48.80;14.98;;;;;;;6.60;44.20;102429.06;4897805;29;20109;-62
2022/12/17 15:12:17;;;;;;;39.25;12.40;;;;;;;6.56;44.97;102432.81;4881717;29;20033;-62
2022/12/17 15:14:43;;;;;;;54.13;15.23;;;;;;;6.54;44.06;102434.66;4898047;29;20402;-62
2022/12/17 15:17:08;;;;;;;50.50;14.48;;;;;;;6.53;45.01;102443.59;4883353;29;20047;-62
2022/12/17 15:19:33;;;;;;;49.47;15.23;;;;;;;6.49;44.32;102439.31;4900770;29;20060;-62
2022/12/17 15:21:59;;;;;;;51.75;12.93;;;;;;;6.49;45.96;102441.97;4884152;29;20037;-62
2022/12/17 15:24:24;;;;;;;52.30;13.68;;;;;;;6.48;45.23;102440.25;4883832;29;20033;-62
2022/12/17 15:26:49;;;;;;;49.97;17.63;;;;;;;6.48;45.94;102445.59;4902637;29;20137;-62
2022/12/17 15:29:15;;;;;;;54.95;14.13;;;;;;;6.44;44.97;102450.16;4902903;29;20058;-62
2022/12/17 15:31:40;;;;;;;46.25;14.57;;;;;;;6.42;44.88;102460.84;4919493;29;20115;-62
2022/12/17 15:34:05;;;;;;;48.40;16.85;;;;;;;6.41;45.19;102461.81;4919522;29;20113;-60
2022/12/17 15:36:31;;;;;;;66.72;21.63;;;;;;;6.35;45.26;102456.72;4919005;29;20060;-60
2022/12/17 15:38:57;;;;;;;40.80;14.88;;;;;;;6.34;44.57;102451.44;4887142;29;20123;-60
2022/12/17 15:44:06;;;;;;;48.85;13.98;;;;;;;6.23;45.34;102443.91;4904789;29;20130;-60
2022/12/17 15:46:32;;;;;;;45.00;14.77;;;;;;;6.20;44.35;102452.00;4886902;29;20072;-61
2022/12/17 15:48:57;;;;;;;41.65;13.95;;;;;;;6.18;44.55;102459.19;4902370;29;20028;-61
2022/12/17 15:51:22;;;;;;;53.08;15.85;;;;;;;6.13;45.13;102461.16;4902045;29;20451;-60
2022/12/17 15:53:49;;;;;;;47.55;15.73;;;;;;;6.10;45.36;102466.59;4887386;29;20032;-60
2022/12/17 15:56:24;;;;;;;51.40;17.00;;;;;;;6.08;44.80;102464.94;4902324;29;20119;-60
2022/12/17 16:01:25;;;;;;;46.22;14.27;;;;;;;6.00;43.72;102470.56;5329910;23;20075;-57
2022/12/17 16:03:50;;;;;;;49.05;15.98;;;;;;;6.00;45.73;102470.56;4882476;29;20502;-57
2022/12/17 16:06:16;;;;;;;34.78;12.07;;;;;;;5.97;44.41;102465.38;4883626;29;20085;-56
2022/12/17 16:08:41;;;;;;;43.22;13.10;;;;;;;5.93;44.70;102469.06;4883399;29;20045;-58
2022/12/17 16:11:08;;;;;;;42.90;11.85;;;;;;;5.90;43.85;102476.28;4881683;29;20041;-57
2022/12/17 16:13:34;;;;;;;34.08;11.15;;;;;;;5.87;44.97;102485.25;4866056;29;20509;-57
2022/12/17 16:15:59;;;;;;;45.60;14.20;;;;;;;5.81;44.29;102474.81;4881319;29;20041;-57
2022/12/17 16:18:25;;;;;;;39.38;11.90;;;;;;;5.80;44.97;102483.72;4881317;29;20475;-57
2022/12/17 16:20:50;;;;;;;40.00;12.63;;;;;;;5.78;43.43;102485.53;4866734;29;20040;-57
2022/12/17 16:23:16;;;;;;;40.05;12.23;;;;;;;5.70;43.88;102482.31;4882123;29;20062;-58
2022/12/17 16:25:41;;;;;;;34.00;10.80;;;;;;;5.69;45.39;102480.59;4881026;29;20041;-57
2022/12/17 16:28:07;;;;;;;31.00;10.75;;;;;;;5.63;44.05;102484.34;4880419;29;20131;-57
2022/12/17 16:30:33;;;;;;;36.10;11.43;;;;;;;5.59;43.76;102481.84;4882029;29;20125;-57
2022/12/17 16:32:58;;;;;;;34.60;12.43;;;;;;;5.55;45.25;102482.91;4865896;29;20064;-57
2022/12/17 16:35:24;;;;;;;39.95;13.10;;;;;;;5.51;44.55;102484.78;4882301;29;20056;-57
2022/12/17 16:37:49;;;;;;;39.15;10.80;;;;;;;5.48;45.18;102492.00;4865436;29;20037;-57
2022/12/17 16:40:15;;;;;;;33.15;13.00;;;;;;;5.42;43.64;102481.59;4880056;29;20045;-58
2022/12/17 16:42:40;;;;;;;39.78;11.80;;;;;;;5.40;44.30;102483.44;4880406;29;20120;-58
2022/12/17 16:45:06;;;;;;;30.88;11.23;;;;;;;5.39;43.87;102485.22;4881418;29;20060;-58
2022/12/17 16:47:31;;;;;;;35.90;11.25;;;;;;;5.37;44.72;102486.22;4882170;29;20041;-58
2022/12/17 16:49:56;;;;;;;34.55;9.70;;;;;;;5.34;44.39;102486.31;4880853;29;20074;-58
2022/12/17 16:52:22;;;;;;;40.80;11.13;;;;;;;5.33;44.56;102481.94;4880906;29;20052;-58
2022/12/17 16:54:47;;;;;;;30.73;10.55;;;;;;;5.30;43.12;102478.47;4880362;29;20045;-58
2022/12/17 16:57:13;;;;;;;35.00;10.52;;;;;;;5.28;44.90;102482.97;4880220;29;20033;-57
2022/12/17 16:59:38;;;;;;;29.83;10.50;;;;;;;5.27;43.58;102477.72;4880853;29;20186;-58
2022/12/17 17:02:04;;;;;;;32.22;13.45;;;;;;;5.22;44.55;102477.88;4866060;29;20089;-57
2022/12/17 17:04:29;;;;;;;30.73;11.20;;;;;;;5.19;43.43;102479.78;4881644;29;20044;-58
2022/12/17 17:06:55;;;;;;;37.70;11.73;;;;;;;5.18;43.11;102489.53;4882664;29;20134;-58
2022/12/17 17:09:22;;;;;;;33.35;12.45;;;;;;;5.13;44.75;102488.84;4880639;29;20111;-57
2022/12/17 17:11:47;;;;;;;30.10;10.75;;;;;;;5.07;44.76;102486.41;4865107;29;20052;-58
2022/12/17 17:14:13;;;;;;;33.72;10.55;;;;;;;5.06;43.70;102489.97;4865371;29;20451;-58
2022/12/17 17:16:38;;;;;;;29.20;9.98;;;;;;;5.05;42.95;102503.31;4880963;29;20495;-59
2022/12/17 17:19:05;;;;;;;33.83;10.30;;;;;;;5.01;44.34;102491.91;4880461;29;20097;-58
2022/12/17 17:21:35;;;;;;;29.98;10.85;;;;;;;4.99;44.99;102499.06;4863694;29;20029;-59
2022/12/17 17:24:08;;;;;;;26.95;10.10;;;;;;;4.95;44.90;102500.09;4864063;29;20454;-58
2022/12/17 17:26:34;;;;;;;29.60;10.13;;;;;;;4.90;42.72;102491.41;4880760;29;20044;-58
2022/12/17 17:29:00;;;;;;;21.25;8.35;;;;;;;4.86;44.35;102495.06;4865299;29;20045;-58
2022/12/17 17:31:25;;;;;;;29.75;10.15;;;;;;;4.80;43.53;102491.78;4880676;29;20063;-57
2022/12/17 17:33:51;;;;;;;29.40;10.20;;;;;;;4.75;44.20;102488.38;4865554;29;20045;-58
2022/12/17 17:36:22;;;;;;;36.78;10.40;;;;;;;4.68;43.52;102493.06;4866521;29;20040;-58
2022/12/17 17:38:49;;;;;;;28.52;11.13;;;;;;;4.62;43.36;102487.94;4880903;29;20077;-58
2022/12/17 17:41:18;;;;;;;31.00;11.93;;;;;;;4.56;44.03;102504.06;4868147;29;20513;-57
2022/12/17 17:43:43;;;;;;;25.63;9.75;;;;;;;4.49;44.14;102494.59;4885109;29;20041;-58
2022/12/17 17:46:17;;;;;;;24.10;10.25;;;;;;;4.48;43.87;102506.09;4884758;29;20131;-58
2022/12/17 17:48:43;;;;;;;23.65;8.88;;;;;;;4.42;43.05;102511.59;4869400;29;20041;-58
2022/12/17 17:51:21;;;;;;;29.27;10.77;;;;;;;4.41;42.88;102515.19;4885554;29;20033;-58
2022/12/17 17:53:49;;;;;;;37.42;11.35;;;;;;;4.34;44.12;102510.97;4884879;29;20056;-58
2022/12/17 17:56:16;;;;;;;34.47;11.32;;;;;;;4.33;43.90;102511.88;4869677;29;20033;-58
2022/12/17 17:58:43;;;;;;;38.38;10.25;;;;;;;4.30;44.46;102512.00;4884733;29;20069;-58
2022/12/17 18:01:10;;;;;;;28.38;10.80;;;;;;;4.21;44.07;102496.38;4884532;29;20049;-58
2022/12/17 18:03:36;;;;;;;29.65;10.48;;;;;;;4.24;43.52;102509.53;4884360;29;20061;-58
2022/12/17 18:06:06;;;;;;;42.33;13.30;;;;;;;4.21;43.37;102514.94;4885374;29;20031;-58
2022/12/17 18:08:35;;;;;;;46.28;17.05;;;;;;;4.19;43.86;102511.47;4885195;29;20387;-58
2022/12/17 18:11:02;;;;;;;58.63;15.93;;;;;;;4.19;43.96;102519.41;4854457;29;20052;-57
2022/12/17 18:16:12;;;;;;;46.47;15.20;;;;;;;4.13;44.24;102509.00;4887981;29;20446;-58
2022/12/17 18:18:38;;;;;;;40.00;12.90;;;;;;;4.15;43.64;102507.16;4886582;29;20025;-58
2022/12/17 18:21:15;;;;;;;40.83;14.93;;;;;;;4.13;43.79;102493.09;4886014;29;20109;-58
2022/12/17 18:23:41;;;;;;;42.80;13.18;;;;;;;4.10;43.48;102500.19;4869987;29;20101;-58
2022/12/17 18:26:13;;;;;;;36.35;12.90;;;;;;;4.10;43.98;102494.91;4870771;29;20033;-58
2022/12/17 18:28:39;;;;;;;36.65;14.00;;;;;;;4.11;42.35;102501.94;4886479;29;20040;-58
2022/12/17 18:31:06;;;;;;;41.85;14.25;;;;;;;4.11;42.59;102501.94;4886335;29;20491;-58
2022/12/17 18:33:32;;;;;;;39.42;14.43;;;;;;;4.13;44.43;102498.41;4887984;29;20025;-58
2022/12/17 18:35:57;;;;;;;39.63;14.98;;;;;;;4.10;42.76;102494.06;4887315;29;20379;-57
2022/12/17 18:38:22;;;;;;;44.40;15.13;;;;;;;4.10;43.73;102499.34;4885364;29;20045;-58
2022/12/17 18:40:48;;;;;;;40.80;15.77;;;;;;;4.08;43.71;102499.38;4886737;29;20128;-57
2022/12/17 18:43:22;;;;;;;45.58;12.10;;;;;;;4.05;43.59;102504.78;4885451;29;20049;-58
2022/12/17 18:45:48;;;;;;;43.00;12.35;;;;;;;4.00;42.60;102498.75;4885923;29;20045;-58
2022/12/17 18:48:13;;;;;;;40.90;12.10;;;;;;;3.95;42.55;102500.69;4887415;29;20068;-58
2022/12/17 18:50:39;;;;;;;31.63;11.73;;;;;;;3.90;43.31;102507.91;4870923;29;20049;-58
2022/12/17 18:53:04;;;;;;;32.15;11.65;;;;;;;3.88;42.51;102509.72;4874025;29;20521;-58
2022/12/17 18:55:29;;;;;;;36.20;11.75;;;;;;;3.87;42.30;102513.31;4891057;29;20402;-58
2022/12/17 18:57:55;;;;;;;36.00;12.23;;;;;;;3.84;42.82;102512.50;4889144;29;20092;-58
2022/12/17 19:00:20;;;;;;;35.90;12.48;;;;;;;3.81;42.26;102510.81;4873358;29;20052;-58
2022/12/17 19:02:45;;;;;;;27.25;10.52;;;;;;;3.76;43.33;102518.03;4909850;29;20066;-58
2022/12/17 19:05:11;;;;;;;40.00;13.13;;;;;;;3.73;42.22;102515.47;4890733;29;20051;-59
2022/12/17 19:07:36;;;;;;;27.00;11.07;;;;;;;3.70;43.41;102523.50;4891036;29;20041;-59
2022/12/17 19:10:02;;;;;;;24.13;11.60;;;;;;;3.68;43.01;102527.13;4890876;29;20033;-59
2022/12/17 19:12:28;;;;;;;23.83;10.40;;;;;;;3.65;43.45;102532.50;4875773;29;20032;-59
2022/12/17 19:14:53;;;;;;;34.70;12.35;;;;;;;3.65;43.39;102528.09;4892590;29;20056;-58
2022/12/17 19:17:18;;;;;;;29.33;11.00;;;;;;;3.64;42.49;102531.63;4891061;29;20096;-58
2022/12/17 19:19:44;;;;;;;32.15;10.60;;;;;;;3.55;42.80;102521.28;4891300;29;20044;-58
2022/12/17 19:22:09;;;;;;;29.38;10.90;;;;;;;3.58;43.41;102531.78;4891509;29;20051;-58
2022/12/17 19:24:34;;;;;;;31.35;10.23;;;;;;;3.54;42.13;102535.47;4875286;29;20464;-59
2022/12/17 19:27:00;;;;;;;35.43;10.93;;;;;;;3.44;42.37;102526.88;4892116;29;20046;-58
2022/12/17 19:29:25;;;;;;;23.98;10.35;;;;;;;3.41;43.28;102536.69;4875480;29;20060;-58
2022/12/17 19:31:51;;;;;;;28.77;10.27;;;;;;;3.35;42.30;102539.53;4892030;29;20045;-58
2022/12/17 19:34:17;;;;;;;28.85;10.15;;;;;;;3.28;42.49;102537.94;4892380;29;20044;-58
2022/12/17 19:36:43;;;;;;;22.87;9.47;;;;;;;3.25;42.25;102544.19;4876988;29;20119;-59
2022/12/17 19:39:17;;;;;;;26.63;10.23;;;;;;;3.21;42.47;102549.63;4891915;29;20048;-58
2022/12/17 19:41:43;;;;;;;31.33;9.77;;;;;;;3.16;42.61;102549.72;4909232;29;20494;-59
2022/12/17 19:44:13;;;;;;;33.47;10.87;;;;;;;3.15;42.77;102555.06;4890791;29;20044;-59
2022/12/17 19:46:39;;;;;;;24.10;9.93;;;;;;;3.11;43.08;102556.03;4876928;29;20044;-59
2022/12/17 19:49:04;;;;;;;24.53;10.83;;;;;;;3.07;43.42;102565.81;4892341;29;20043;-59
2022/12/17 19:51:31;;;;;;;28.63;11.13;;;;;;;3.05;42.39;102567.66;4909003;29;20033;-59
2022/12/17 19:53:56;;;;;;;30.40;10.37;;;;;;;3.03;42.21;102568.59;4875520;29;20040;-59
2022/12/17 19:56:29;;;;;;;35.07;11.50;;;;;;;3.04;43.48;102562.41;4875823;29;20066;-59
2022/12/17 19:58:57;;;;;;;31.77;11.43;;;;;;;3.01;42.17;102557.19;4892023;29;20490;-59
2022/12/17 20:01:31;;;;;;;32.13;12.30;;;;;;;2.99;43.56;102564.31;4891442;29;20083;-59
2022/12/17 20:03:56;;;;;;;32.57;11.00;;;;;;;2.97;43.27;102566.09;4874434;29;20123;-58
2022/12/17 20:06:25;;;;;;;28.00;11.03;;;;;;;2.92;42.44;102561.81;4889964;29;20537;-59
2022/12/17 20:08:50;;;;;;;30.37;10.73;;;;;;;2.93;41.98;102563.53;4888225;29;20039;-58
2022/12/17 20:11:32;;;;;;;32.00;11.87;;;;;;;2.91;43.71;102562.72;4889846;29;20127;-59
2022/12/17 20:14:22;;;;;;;30.17;10.50;;;;;;;2.91;43.12;102567.13;4906012;29;20397;-59
2022/12/17 20:16:54;;;;;;;29.97;11.07;;;;;;;2.87;43.11;102555.78;4872821;29;20033;-59
2022/12/17 20:19:24;;;;;;;22.97;9.03;;;;;;;2.88;43.29;102557.47;4874744;29;20040;-59
2022/12/17 20:21:50;;;;;;;24.37;9.67;;;;;;;2.86;43.27;102556.66;4889937;29;20029;-60
2022/12/17 20:24:16;;;;;;;29.80;10.60;;;;;;;2.87;42.18;102566.34;4891650;29;20039;-59
2022/12/17 20:26:43;;;;;;;33.87;11.80;;;;;;;2.86;42.08;102569.91;4873644;29;20061;-59
2022/12/17 20:29:09;;;;;;;28.27;9.13;;;;;;;2.83;42.69;102561.16;4871746;29;20048;-59
2022/12/17 20:31:35;;;;;;;37.50;10.80;;;;;;;2.85;43.27;102568.16;4904711;29;20029;-58
2022/12/17 20:34:02;;;;;;;27.73;9.73;;;;;;;2.83;43.09;102572.63;4889447;29;20043;-59
2022/12/17 20:36:28;;;;;;;25.23;10.43;;;;;;;2.82;42.39;102559.44;4888663;29;20589;-59
2022/12/17 20:38:53;;;;;;;23.43;10.13;;;;;;;2.81;42.87;102563.84;4858801;29;20056;-59
2022/12/17 20:41:21;;;;;;;24.23;9.80;;;;;;;2.80;42.43;102566.50;4872411;29;20506;-59
2022/12/17 20:43:47;;;;;;;25.73;9.27;;;;;;;2.78;42.63;102556.00;4870597;29;20043;-59
2022/12/17 20:46:12;;;;;;;22.87;9.57;;;;;;;2.74;42.26;102553.44;4870878;29;20430;-59
2022/12/17 20:48:39;;;;;;;28.37;10.37;;;;;;;2.75;41.68;102558.69;4903564;29;20041;-59
2022/12/17 20:51:24;;;;;;;23.20;10.43;;;;;;;2.72;42.24;102548.19;4887313;29;20048;-59
2022/12/17 20:53:51;;;;;;;29.00;10.10;;;;;;;2.74;43.16;102551.66;4885955;29;20037;-59
2022/12/17 20:56:19;;;;;;;28.70;9.77;;;;;;;2.73;42.93;102557.00;4886291;29;20037;-59
2022/12/17 20:58:45;;;;;;;29.03;8.80;;;;;;;2.72;43.08;102553.47;4885843;29;20044;-59
2022/12/17 21:01:11;;;;;;;23.77;8.90;;;;;;;2.71;42.77;102562.31;4885955;29;20064;-59
2022/12/17 21:03:38;;;;;;;29.27;12.27;;;;;;;2.66;42.25;102553.63;4870586;29;20041;-59
2022/12/17 21:06:15;;;;;;;28.43;9.20;;;;;;;2.66;42.27;102577.44;4871419;29;20471;-59
2022/12/17 21:08:41;;;;;;;31.63;11.13;;;;;;;2.65;42.25;102572.19;4870549;29;20205;-59
2022/12/17 21:11:07;;;;;;;37.77;11.17;;;;;;;2.62;42.54;102566.97;4886463;29;20383;-59
2022/12/17 21:13:33;;;;;;;26.20;9.53;;;;;;;2.59;43.21;102575.84;4885394;29;20039;-58
2022/12/17 21:16:20;;;;;;;24.47;11.43;;;;;;;2.60;42.92;102563.47;4870333;29;20041;-59
2022/12/17 21:18:46;;;;;;;25.53;10.47;;;;;;;2.59;42.00;102561.75;4885610;29;20036;-59
2022/12/17 21:21:17;;;;;;;20.93;8.97;;;;;;;2.57;41.62;102559.13;4886094;29;20421;-59
2022/12/17 21:23:44;;;;;;;26.30;11.03;;;;;;;2.55;41.61;102560.06;4902215;29;20045;-59
2022/12/17 21:26:20;;;;;;;33.77;10.47;;;;;;;2.54;41.70;102553.91;4870140;29;20070;-59
2022/12/17 21:28:47;;;;;;;26.67;9.83;;;;;;;2.50;41.86;102568.13;4902317;29;20044;-59
2022/12/17 21:31:24;;;;;;;28.03;9.03;;;;;;;2.46;43.03;102566.44;4886352;29;20498;-59
2022/12/17 21:33:51;;;;;;;28.30;10.70;;;;;;;2.45;42.04;102575.28;4885647;29;20067;-59
2022/12/17 21:36:18;;;;;;;27.03;11.03;;;;;;;2.43;43.21;102574.44;4885955;29;20036;-58
2022/12/17 21:38:43;;;;;;;29.70;9.17;;;;;;;2.37;42.96;102571.09;4869657;29;20131;-59
2022/12/17 21:41:12;;;;;;;26.73;9.53;;;;;;;2.39;41.85;102588.66;4901849;29;20044;-59
2022/12/17 21:43:38;;;;;;;31.97;11.80;;;;;;;2.37;42.47;102593.09;4870074;29;20048;-59
2022/12/17 21:46:04;;;;;;;29.37;10.97;;;;;;;2.36;41.64;102596.66;4902550;29;20044;-59
2022/12/17 21:48:30;;;;;;;30.17;10.73;;;;;;;2.33;42.79;102589.66;4902419;29;20041;-58
2022/12/17 21:50:55;;;;;;;38.53;11.97;;;;;;;2.32;41.83;102584.38;4885923;29;20099;-58
2022/12/17 21:53:21;;;;;;;27.93;10.17;;;;;;;2.30;43.21;102576.50;4870497;29;20045;-59
2022/12/17 21:55:47;;;;;;;26.87;9.83;;;;;;;2.30;42.30;102575.63;4870689;29;20120;-58
2022/12/17 21:58:14;;;;;;;36.37;10.07;;;;;;;2.29;41.61;102584.44;4870237;29;20040;-59
2022/12/17 22:00:39;;;;;;;32.70;10.70;;;;;;;2.28;41.68;102593.31;4884974;29;20045;-59
2022/12/17 22:03:05;;;;;;;24.57;9.37;;;;;;;2.26;41.70;102589.84;4870842;29;20075;-58
2022/12/17 22:05:30;;;;;;;35.93;11.10;;;;;;;2.24;41.87;102591.63;4885400;29;20053;-59
2022/12/17 22:07:55;;;;;;;23.33;10.73;;;;;;;2.21;41.44;102599.59;4884955;29;20037;-59
2022/12/17 22:10:21;;;;;;;21.53;9.53;;;;;;;2.18;42.27;102608.47;4853602;29;20467;-58
2022/12/17 22:15:30;;;;;;;24.23;10.97;;;;;;;2.13;41.81;102609.47;4901028;29;20059;-59
2022/12/17 22:17:56;;;;;;;28.80;11.83;;;;;;;2.15;42.92;102615.63;4885384;29;20025;-59
2022/12/17 22:20:22;;;;;;;23.93;10.23;;;;;;;2.12;41.70;102618.31;4901175;29;20044;-58
2022/12/17 22:22:48;;;;;;;29.87;10.53;;;;;;;2.13;42.16;102612.13;4885140;29;20096;-59
2022/12/17 22:25:13;;;;;;;22.13;9.80;;;;;;;2.10;41.39;102604.25;4869904;29;20037;-59
2022/12/17 22:27:39;;;;;;;30.57;10.87;;;;;;;2.08;41.75;102598.13;4905065;29;20044;-59
2022/12/17 22:33:01;;;;;;;21.73;11.30;;;;;;;2.06;42.96;102605.22;4890823;29;20414;-59
2022/12/17 22:35:27;;;;;;;28.40;11.27;;;;;;;2.06;42.00;102607.88;4904996;29;20129;-59
2022/12/17 22:37:53;;;;;;;27.13;11.13;;;;;;;2.04;42.37;102599.13;4889568;29;20036;-59
2022/12/17 22:40:20;;;;;;;28.13;11.37;;;;;;;2.06;41.99;102602.59;4874912;29;20044;-59
2022/12/17 22:45:30;;;;;;;32.87;9.70;;;;;;;2.01;41.87;102605.31;4892215;29;20060;-59
2022/12/17 22:47:55;;;;;;;24.37;11.10;;;;;;;2.00;42.02;102606.22;4888886;29;20115;-59
2022/12/17 22:50:20;;;;;;;21.17;8.63;;;;;;;1.97;42.13;102610.69;4905110;29;20119;-59
2022/12/17 22:52:46;;;;;;;22.93;8.37;;;;;;;1.94;42.81;102603.69;4906849;29;20108;-59
2022/12/17 22:55:12;;;;;;;30.33;10.37;;;;;;;1.96;41.52;102601.00;4906968;29;20375;-58
2022/12/17 22:57:38;;;;;;;23.63;8.87;;;;;;;1.94;41.51;102594.91;4924884;29;20048;-59
2022/12/17 23:00:25;;;;;;;28.53;10.67;;;;;;;1.91;42.11;102598.47;4907398;29;20115;-59
2022/12/17 23:02:53;;;;;;;24.70;11.20;;;;;;;1.83;41.78;102583.69;4890543;29;20052;-59
2022/12/17 23:05:22;;;;;;;22.60;8.80;;;;;;;1.87;41.81;102601.22;4907703;29;20047;-59
2022/12/17 23:07:49;;;;;;;37.43;10.63;;;;;;;1.86;41.71;102597.69;4907772;29;20064;-59
2022/12/17 23:10:15;;;;;;;32.53;11.47;;;;;;;1.87;42.14;102607.34;4876167;29;20047;-59
2022/12/17 23:12:49;;;;;;;22.03;9.43;;;;;;;1.89;41.97;102617.91;4906849;29;20059;-59
2022/12/17 23:15:22;;;;;;;23.50;9.77;;;;;;;1.87;41.72;102609.16;4908850;29;20470;-59
2022/12/17 23:17:47;;;;;;;25.90;10.23;;;;;;;1.86;41.73;102610.03;4924084;29;20040;-59
2022/12/17 23:20:13;;;;;;;26.70;11.00;;;;;;;1.84;42.01;102607.44;4891035;29;20564;-59
2022/12/17 23:22:39;;;;;;;28.00;10.07;;;;;;;1.82;42.28;102597.78;4890997;29;20032;-59
2022/12/17 23:25:05;;;;;;;26.60;10.97;;;;;;;1.74;42.41;102585.59;4891173;29;20041;-59
2022/12/17 23:27:30;;;;;;;20.13;9.23;;;;;;;1.73;41.42;102586.50;4907241;29;20063;-59
2022/12/17 23:29:56;;;;;;;30.87;11.10;;;;;;;1.77;41.21;102596.13;4908563;29;20032;-59
2022/12/17 23:32:21;;;;;;;24.90;11.43;;;;;;;1.74;41.41;102585.59;4922429;29;20466;-59
2022/12/17 23:34:46;;;;;;;27.23;11.40;;;;;;;1.73;42.72;102586.50;4907308;29;20036;-59
2022/12/17 23:37:12;;;;;;;26.70;11.00;;;;;;;1.70;42.68;102576.00;4890218;29;20237;-58
2022/12/17 23:39:37;;;;;;;26.70;10.63;;;;;;;1.69;42.26;102576.91;4922255;29;20099;-58
2022/12/17 23:42:02;;;;;;;22.63;10.43;;;;;;;1.68;41.88;102585.72;4891522;29;20493;-59
2022/12/17 23:44:28;;;;;;;23.20;9.47;;;;;;;1.68;41.92;102591.00;4906277;29;20040;-59
2022/12/17 23:46:53;;;;;;;27.73;9.67;;;;;;;1.67;41.34;102596.31;4924105;29;20109;-59
2022/12/17 23:49:18;;;;;;;16.63;8.83;;;;;;;1.65;41.97;102593.69;4905765;29;20032;-59
2022/12/17 23:51:44;;;;;;;21.63;9.67;;;;;;;1.63;42.09;102577.03;4906142;29;20038;-59
2022/12/17 23:54:09;;;;;;;20.77;8.80;;;;;;;1.62;42.43;102583.19;4922779;29;20419;-58
2022/12/17 23:56:35;;;;;;;23.93;9.87;;;;;;;1.58;41.30;102584.16;4906127;29;20042;-59
2022/12/17 23:59:02;;;;;;;22.17;11.57;;;;;;;1.57;42.50;102595.63;4916004;29;20037;-59
